Terminal Aerodrome Forecast
Issued by NWS

Home | Current Version | Previous Version | Text Only | Print | Product List | Glossary On
Versions: 1 2 3 4 5 6 7 8 9 10 11 12 13
000
FTUS44 KOUN 171730
TAFCSM
TAF
KCSM 171730Z 1718/1818 35008KT P6SM FEW150
     FM180000 15005KT P6SM BKN100
     FM180500 22004KT P6SM VCSH OVC080
     FM181300 18007KT P6SM OVC040=

USA.gov is the U.S. government's official web portal to all federal, state and local government web resources and services.